createdAt,value
2022-07-27T00:00:05.038Z,101268.97
2022-07-27T00:00:33.754Z,101273.53
2022-07-27T00:00:55.731Z,101279.78
2022-07-27T00:01:17.911Z,101271.69
2022-07-27T00:01:40.770Z,101270.59
2022-07-27T00:02:13.081Z,101275.38
2022-07-27T00:02:34.879Z,101273.53
2022-07-27T00:02:57.037Z,101272.69
2022-07-27T00:03:19.769Z,101268.41
2022-07-27T00:03:42.251Z,101265.53
2022-07-27T00:04:04.122Z,101272.69
2022-07-27T00:04:26.230Z,101267.44
2022-07-27T00:04:49.726Z,101261.16
2022-07-27T00:05:11.500Z,101270.28
2022-07-27T00:05:33.232Z,101264.97
2022-07-27T00:05:55.155Z,101258.78
2022-07-27T00:06:17.807Z,101266.78
2022-07-27T00:06:39.525Z,101268.72
2022-07-27T00:07:01.172Z,101263.44
2022-07-27T00:07:22.983Z,101266.16
2022-07-27T00:07:45.661Z,101267.84
2022-07-27T00:08:07.407Z,101260.75
2022-07-27T00:08:29.055Z,101267.03
2022-07-27T00:08:50.835Z,101263.44
2022-07-27T00:09:13.912Z,101260.50
2022-07-27T00:09:35.933Z,101263.44
2022-07-27T00:09:57.666Z,101259.00
2022-07-27T00:10:19.373Z,101265.28
2022-07-27T00:10:41.388Z,101259.00
2022-07-27T00:11:04.281Z,101262.25
2022-07-27T00:11:27.476Z,101267.66
2022-07-27T00:11:49.135Z,101264.84
2022-07-27T00:12:10.819Z,101261.16
2022-07-27T00:12:33.553Z,101264.72
2022-07-27T00:12:55.405Z,101267.75
2022-07-27T00:13:17.123Z,101266.03
2022-07-27T00:13:39.158Z,101264.97
2022-07-27T00:14:01.838Z,101263.22
2022-07-27T00:14:23.533Z,101264.41
2022-07-27T00:14:45.216Z,101263.66
2022-07-27T00:15:08.325Z,101261.81
2022-07-27T00:15:31.430Z,101265.81
2022-07-27T00:15:53.199Z,101264.84
2022-07-27T00:16:15.021Z,101269.50
2022-07-27T00:16:38.138Z,101264.19
2022-07-27T00:17:00.087Z,101260.53
2022-07-27T00:17:23.874Z,101267.78
2022-07-27T00:17:45.580Z,101265.16
2022-07-27T00:18:07.522Z,101266.03
2022-07-27T00:18:30.224Z,101262.38
2022-07-27T00:18:52.037Z,101264.84
2022-07-27T00:19:14.041Z,101267.66
2022-07-27T00:19:36.892Z,101268.66
2022-07-27T00:19:58.619Z,101274.06
2022-07-27T00:20:27.007Z,101268.50
2022-07-27T00:20:49.222Z,101272.31
2022-07-27T00:21:11.917Z,101266.03
2022-07-27T00:21:33.833Z,101264.28
2022-07-27T00:21:58.511Z,101267.97
2022-07-27T00:22:20.209Z,101272.50
2022-07-27T00:22:42.856Z,101278.91
2022-07-27T00:23:04.755Z,101272.50
2022-07-27T00:23:26.484Z,101268.09
2022-07-27T00:23:49.202Z,101272.41
2022-07-27T00:24:10.950Z,101262.38
2022-07-27T00:24:32.618Z,101262.47
2022-07-27T00:24:54.292Z,101260.53
2022-07-27T00:25:16.899Z,101266.56
2022-07-27T00:25:38.642Z,101263.88
2022-07-27T00:26:00.381Z,101263.00
2022-07-27T00:26:22.420Z,101267.53
2022-07-27T00:26:46.436Z,101266.81
2022-07-27T00:27:08.228Z,101258.03
2022-07-27T00:28:09.418Z,101241.81
2022-07-27T00:28:32.170Z,101262.78
2022-07-27T00:28:53.894Z,101262.78
2022-07-27T00:29:15.771Z,101255.66
2022-07-27T00:29:37.484Z,101265.59
2022-07-27T00:30:00.181Z,101264.72
2022-07-27T00:30:21.962Z,101266.78
2022-07-27T00:30:43.633Z,101263.13
2022-07-27T00:31:06.017Z,101250.97
2022-07-27T00:31:28.771Z,101263.13
2022-07-27T00:31:50.473Z,101257.72
2022-07-27T00:32:12.996Z,101267.56
2022-07-27T00:32:34.638Z,101263.97
2022-07-27T00:32:57.003Z,101265.59
2022-07-27T00:33:19.677Z,101267.41
2022-07-27T00:33:41.641Z,101260.19
2022-07-27T00:34:03.394Z,101264.09
2022-07-27T00:34:25.105Z,101273.69
2022-07-27T00:34:48.876Z,101270.03
2022-07-27T00:35:10.838Z,101270.91
2022-07-27T00:35:35.848Z,101265.72
2022-07-27T00:35:58.951Z,101271.88
2022-07-27T00:36:20.704Z,101271.13
2022-07-27T00:36:42.366Z,101270.25
2022-07-27T00:37:05.121Z,101259.09
2022-07-27T00:37:26.750Z,101273.16
2022-07-27T00:37:48.442Z,101269.50
2022-07-27T00:38:10.224Z,101264.84
2022-07-27T00:38:32.984Z,101249.47
2022-07-27T00:38:54.789Z,101269.50
2022-07-27T00:39:16.609Z,101262.78
2022-07-27T00:39:38.334Z,101263.53
2022-07-27T00:40:00.943Z,101269.03
2022-07-27T00:40:23.490Z,101275.22
2022-07-27T00:40:45.235Z,101272.72
2022-07-27T00:41:07.012Z,101269.25
2022-07-27T00:41:29.691Z,101270.03
2022-07-27T00:41:52.834Z,101264.09
2022-07-27T00:42:14.540Z,101272.94
2022-07-27T00:42:36.325Z,101273.06
2022-07-27T00:42:58.099Z,101270.44
2022-07-27T00:43:21.969Z,101264.19
2022-07-27T00:43:51.125Z,101270.44
2022-07-27T00:44:12.846Z,101273.16
2022-07-27T00:44:35.569Z,101270.53
2022-07-27T00:44:57.756Z,101268.81
2022-07-27T00:45:19.426Z,101271.50
2022-07-27T00:45:41.612Z,101271.63
2022-07-27T00:46:04.538Z,101276.28
2022-07-27T00:46:28.820Z,101271.81
2022-07-27T00:46:50.588Z,101271.81
2022-07-27T00:47:12.396Z,101267.38
2022-07-27T00:47:35.121Z,101271.09
2022-07-27T00:47:56.813Z,101273.78
2022-07-27T00:48:19.542Z,101275.63
2022-07-27T00:48:41.279Z,101267.72
2022-07-27T00:49:03.104Z,101266.97
2022-07-27T00:49:26.848Z,101266.97
2022-07-27T00:49:49.517Z,101267.06
2022-07-27T00:50:11.576Z,101264.34
2022-07-27T00:50:33.524Z,101275.16
2022-07-27T00:50:56.564Z,101266.19
2022-07-27T00:51:20.032Z,101260.91
2022-07-27T00:51:43.522Z,101277.13
2022-07-27T00:52:05.655Z,101268.69
2022-07-27T00:52:28.904Z,101269.34
2022-07-27T00:52:51.178Z,101272.78
2022-07-27T00:53:13.942Z,101275.41
2022-07-27T00:53:38.144Z,101268.16
2022-07-27T00:54:00.575Z,101262.75
2022-07-27T00:54:22.757Z,101270.63
2022-07-27T00:54:48.070Z,101267.75
2022-07-27T00:55:10.396Z,101263.31
2022-07-27T00:55:32.911Z,101267.84
2022-07-27T00:55:54.655Z,101266.97
2022-07-27T00:56:17.553Z,101265.47
2022-07-27T00:56:39.636Z,101265.47
2022-07-27T00:57:02.712Z,101261.25
2022-07-27T00:57:26.259Z,101269.13
2022-07-27T00:57:58.701Z,101257.56
2022-07-27T00:58:21.492Z,101262.63
2022-07-27T00:58:47.468Z,101268.56
2022-07-27T00:59:13.211Z,101264.03
2022-07-27T00:59:35.609Z,101265.78
2022-07-27T00:59:57.345Z,101260.47
2022-07-27T01:00:19.046Z,101258.75
2022-07-27T01:00:41.754Z,101266.66
2022-07-27T01:01:03.992Z,101273.78
2022-07-27T01:01:25.770Z,101271.81
2022-07-27T01:01:47.608Z,101261.16
2022-07-27T01:02:12.025Z,101269.34
2022-07-27T01:02:34.323Z,101265.69
2022-07-27T01:02:58.941Z,101268.38
2022-07-27T01:03:29.799Z,101274.75
2022-07-27T01:03:52.623Z,101264.91
2022-07-27T01:04:14.741Z,101271.09
2022-07-27T01:04:37.089Z,101265.69
2022-07-27T01:04:58.841Z,101271.97
2022-07-27T01:05:21.924Z,101269.44
2022-07-27T01:05:45.881Z,101271.09
2022-07-27T01:06:07.953Z,101273.78
2022-07-27T01:06:29.711Z,101271.28
2022-07-27T01:06:52.820Z,101268.69
2022-07-27T01:07:15.008Z,101275.06
2022-07-27T01:07:37.752Z,101276.91
2022-07-27T01:07:59.518Z,101271.59
2022-07-27T01:08:21.329Z,101278.97
2022-07-27T01:08:43.449Z,101276.25
2022-07-27T01:09:38.439Z,101262.34
2022-07-27T01:10:01.149Z,101272.88
2022-07-27T01:10:23.296Z,101270.19
2022-07-27T01:10:45.635Z,101275.47
2022-07-27T01:11:07.691Z,101273.66
2022-07-27T01:11:30.357Z,101273.00
2022-07-27T01:11:52.064Z,101271.22
2022-07-27T01:12:17.340Z,101273.66
2022-07-27T01:12:40.001Z,101274.53
2022-07-27T01:13:02.221Z,101272.69
2022-07-27T01:13:25.840Z,101271.91
2022-07-27T01:13:47.694Z,101275.38
2022-07-27T01:14:10.068Z,101273.06
2022-07-27T01:14:31.970Z,101278.19
2022-07-27T01:14:55.910Z,101272.78
2022-07-27T01:15:17.900Z,101272.78
2022-07-27T01:15:39.995Z,101274.53
2022-07-27T01:16:04.765Z,101270.19
2022-07-27T01:16:27.582Z,101267.16
2022-07-27T01:16:49.297Z,101264.44
2022-07-27T01:17:10.983Z,101266.31
2022-07-27T01:17:33.614Z,101274.44
2022-07-27T01:17:56.315Z,101270.06
2022-07-27T01:18:28.333Z,101268.25
2022-07-27T01:18:50.506Z,101268.03
2022-07-27T01:19:15.067Z,101267.06
2022-07-27T01:19:38.004Z,101245.28
2022-07-27T01:20:00.203Z,101262.75
2022-07-27T01:20:21.934Z,101261.75
2022-07-27T01:20:43.581Z,101261.97
2022-07-27T01:21:08.186Z,101271.72
2022-07-27T01:21:34.507Z,101270.00
2022-07-27T01:21:56.349Z,101272.56
2022-07-27T01:22:18.332Z,101260.03
2022-07-27T01:22:41.005Z,101264.59
2022-07-27T01:23:02.664Z,101262.75
2022-07-27T01:23:25.129Z,101266.31
2022-07-27T01:23:46.832Z,101267.16
2022-07-27T01:24:09.697Z,101277.88
2022-07-27T01:24:31.332Z,101248.97
2022-07-27T01:24:53.299Z,101268.81
2022-07-27T01:25:15.305Z,101281.53
2022-07-27T01:25:39.545Z,101271.72
2022-07-27T01:26:02.159Z,101276.13
2022-07-27T01:26:23.924Z,101270.72
2022-07-27T01:26:47.540Z,101279.84
2022-07-27T01:27:09.361Z,101272.69
2022-07-27T01:27:31.007Z,101273.34
2022-07-27T01:27:52.679Z,101271.72
2022-07-27T01:28:15.273Z,101275.16
2022-07-27T01:28:36.945Z,101274.72
2022-07-27T01:29:00.393Z,101267.59
2022-07-27T01:29:22.117Z,101274.72
2022-07-27T01:29:44.892Z,101271.16
2022-07-27T01:30:26.350Z,101267.59
2022-07-27T01:30:48.138Z,101272.19
2022-07-27T01:31:10.945Z,101262.88
2022-07-27T01:31:33.854Z,101272.19
2022-07-27T01:31:57.315Z,101268.47
2022-07-27T01:32:18.954Z,101271.16
2022-07-27T01:32:40.577Z,101278.19
2022-07-27T01:33:03.594Z,101275.38
2022-07-27T01:33:27.971Z,101270.19
2022-07-27T01:33:49.614Z,101275.38
2022-07-27T01:34:11.283Z,101255.69
2022-07-27T01:34:34.531Z,101265.31
2022-07-27T01:34:56.216Z,101265.44
2022-07-27T01:35:18.119Z,101267.38
2022-07-27T01:35:40.109Z,101266.59
2022-07-27T01:36:02.704Z,101275.47
2022-07-27T01:36:24.512Z,101270.00
2022-07-27T01:36:47.557Z,101267.47
2022-07-27T01:37:09.363Z,101269.31
2022-07-27T01:37:31.093Z,101267.66
2022-07-27T01:37:53.699Z,101260.63
2022-07-27T01:38:15.413Z,101264.09
2022-07-27T01:38:37.084Z,101255.44
2022-07-27T01:38:59.757Z,101262.56
2022-07-27T01:39:21.578Z,101259.09
2022-07-27T01:39:44.401Z,101266.25
2022-07-27T01:40:06.643Z,101258.03
2022-07-27T01:40:29.424Z,101262.47
2022-07-27T01:40:52.527Z,101265.28
2022-07-27T01:41:15.297Z,101259.78
2022-07-27T01:41:36.947Z,101257.16
2022-07-27T01:41:59.506Z,101259.88
2022-07-27T01:42:21.652Z,101253.69
2022-07-27T01:42:44.269Z,101262.66
2022-07-27T01:43:05.957Z,101257.38
2022-07-27T01:43:27.596Z,101264.50
2022-07-27T01:43:49.570Z,101259.09
2022-07-27T01:44:11.317Z,101271.63
2022-07-27T01:44:34.221Z,101261.06
2022-07-27T01:44:55.911Z,101266.66
2022-07-27T01:45:17.829Z,101267.50
2022-07-27T01:45:39.837Z,101263.38
2022-07-27T01:46:02.667Z,101261.25
2022-07-27T01:46:24.474Z,101261.06
2022-07-27T01:46:46.301Z,101268.19
2022-07-27T01:47:13.944Z,101265.38
2022-07-27T01:47:36.489Z,101263.63
2022-07-27T01:47:59.209Z,101259.97
2022-07-27T01:48:20.917Z,101250.56
2022-07-27T01:48:42.680Z,101261.47
2022-07-27T01:49:05.036Z,101267.09
2022-07-27T01:49:27.824Z,101261.69
2022-07-27T01:49:49.496Z,101267.97
2022-07-27T01:50:11.509Z,101249.56
2022-07-27T01:50:34.324Z,101265.38
2022-07-27T01:50:57.172Z,101240.25
2022-07-27T01:51:18.821Z,101265.69
2022-07-27T01:51:40.460Z,101257.66
2022-07-27T01:52:03.476Z,101261.16
2022-07-27T01:52:25.142Z,101262.09
2022-07-27T01:52:48.608Z,101258.44
2022-07-27T01:53:10.914Z,101254.78
2022-07-27T01:53:32.738Z,101262.78
2022-07-27T01:53:54.569Z,101254.88
2022-07-27T01:54:17.921Z,101262.00
2022-07-27T01:54:39.602Z,101258.22
2022-07-27T01:55:01.203Z,101263.63
2022-07-27T01:55:22.921Z,101259.31
2022-07-27T01:55:44.855Z,101258.34
2022-07-27T01:56:10.780Z,101260.28
2022-07-27T01:56:32.489Z,101259.53
2022-07-27T01:56:54.273Z,101252.94
2022-07-27T01:57:16.067Z,101259.97
2022-07-27T01:57:39.518Z,101256.53
2022-07-27T01:58:03.836Z,101260.19
2022-07-27T01:58:25.603Z,101261.91
2022-07-27T01:58:48.705Z,101245.25
2022-07-27T01:59:16.483Z,101257.56
2022-07-27T01:59:38.809Z,101259.53
2022-07-27T02:00:00.469Z,101263.28
2022-07-27T02:00:23.297Z,101265.03
2022-07-27T02:00:45.167Z,101257.03
2022-07-27T02:01:07.458Z,101236.91
2022-07-27T02:01:29.171Z,101258.66
2022-07-27T02:01:51.994Z,101267.63
2022-07-27T02:02:16.013Z,101229.44
2022-07-27T02:02:38.320Z,101262.34
2022-07-27T02:02:59.994Z,101265.03
2022-07-27T02:03:22.749Z,101210.03
2022-07-27T02:03:44.461Z,101268.13
2022-07-27T02:04:06.149Z,101250.81
2022-07-27T02:04:27.966Z,101268.66
2022-07-27T02:04:50.738Z,101275.38
2022-07-27T02:05:12.577Z,101267.56
2022-07-27T02:05:34.941Z,101270.94
2022-07-27T02:05:56.723Z,101272.03
2022-07-27T02:06:19.378Z,101266.06
2022-07-27T02:06:41.535Z,101280.22
2022-07-27T02:07:04.589Z,101275.78
2022-07-27T02:07:26.290Z,101269.53
2022-07-27T02:07:48.016Z,101274.16
2022-07-27T02:08:10.728Z,101276.78
2022-07-27T02:08:32.785Z,101266.47
2022-07-27T02:08:54.458Z,101276.63
2022-07-27T02:09:16.125Z,101275.13
2022-07-27T02:09:37.839Z,101278.78
2022-07-27T02:10:00.462Z,101276.09
2022-07-27T02:10:22.213Z,101276.94
2022-07-27T02:10:58.790Z,101268.97
2022-07-27T02:11:38.881Z,101271.69
2022-07-27T02:12:27.709Z,101268.09
2022-07-27T02:12:49.607Z,101270.03
2022-07-27T02:13:22.209Z,101264.72
2022-07-27T02:13:47.232Z,101265.91
2022-07-27T02:14:08.927Z,101242.44
2022-07-27T02:14:30.551Z,101271.94
2022-07-27T02:14:52.861Z,101266.78
2022-07-27T02:15:19.755Z,101267.84
2022-07-27T02:15:43.339Z,101263.97
2022-07-27T02:16:09.642Z,101262.25
2022-07-27T02:16:39.955Z,101269.38
2022-07-27T02:17:02.126Z,101267.63
2022-07-27T02:17:23.980Z,101262.31
2022-07-27T02:17:46.281Z,101268.59
2022-07-27T02:18:33.262Z,101262.25
2022-07-27T02:18:51.055Z,101265.91
2022-07-27T02:19:13.035Z,101266.97
2022-07-27T02:19:35.999Z,101262.25
2022-07-27T02:19:57.658Z,101268.69
2022-07-27T02:20:21.274Z,101259.06
2022-07-27T02:20:42.972Z,101256.81
2022-07-27T02:21:06.765Z,101261.88
2022-07-27T02:21:28.410Z,101267.38
2022-07-27T02:21:50.053Z,101263.72
2022-07-27T02:22:14.069Z,101266.50
2022-07-27T02:22:36.234Z,101264.59
2022-07-27T02:22:57.940Z,101270.72
2022-07-27T02:23:19.607Z,101251.56
2022-07-27T02:23:44.448Z,101261.66
2022-07-27T02:24:06.985Z,101263.28
2022-07-27T02:24:28.662Z,101262.44
2022-07-27T02:24:50.397Z,101267.06
2022-07-27T02:25:14.747Z,101259.75
2022-07-27T02:25:37.902Z,101260.72
2022-07-27T02:25:59.749Z,101265.25
2022-07-27T02:26:21.418Z,101266.28
2022-07-27T02:26:44.083Z,101264.59
2022-07-27T02:27:06.384Z,101252.34
2022-07-27T02:27:28.244Z,101266.28
2022-07-27T02:27:49.958Z,101255.25
2022-07-27T02:28:11.732Z,101270.94
2022-07-27T02:28:34.676Z,101264.59
2022-07-27T02:28:56.391Z,101270.09
2022-07-27T02:29:18.117Z,101265.63
2022-07-27T02:29:39.767Z,101272.88
2022-07-27T02:30:02.625Z,101271.13
2022-07-27T02:30:24.305Z,101255.25
2022-07-27T02:30:46.735Z,101268.44
2022-07-27T02:31:08.544Z,101265.00
2022-07-27T02:31:33.055Z,101274.81
2022-07-27T02:31:54.834Z,101270.47
2022-07-27T02:32:16.572Z,101266.03
2022-07-27T02:32:40.437Z,101265.38
2022-07-27T02:33:06.306Z,101264.81
2022-07-27T02:33:28.055Z,101267.31
2022-07-27T02:33:49.722Z,101273.47
2022-07-27T02:34:12.381Z,101261.91
2022-07-27T02:34:34.082Z,101262.59
2022-07-27T02:34:55.746Z,101268.94
2022-07-27T02:35:18.741Z,101271.75
2022-07-27T02:35:40.953Z,101261.91
2022-07-27T02:36:02.710Z,101275.22
2022-07-27T02:36:25.350Z,101263.56
2022-07-27T02:36:47.026Z,101266.25
2022-07-27T02:37:08.813Z,101265.38
2022-07-27T02:37:32.411Z,101254.09
2022-07-27T02:37:55.119Z,101269.16
2022-07-27T02:38:16.925Z,101266.56
2022-07-27T02:38:38.600Z,101259.19
2022-07-27T02:39:00.267Z,101274.44
2022-07-27T02:39:22.942Z,101265.59
2022-07-27T02:39:44.581Z,101263.84
2022-07-27T02:40:07.485Z,101263.94
2022-07-27T02:40:29.212Z,101257.59
2022-07-27T02:40:50.978Z,101256.22
2022-07-27T02:41:13.658Z,101259.59
2022-07-27T02:41:35.348Z,101265.09
2022-07-27T02:41:56.966Z,101261.72
2022-07-27T02:42:19.173Z,101268.66
2022-07-27T02:42:41.905Z,101263.16
2022-07-27T02:43:03.619Z,101266.81
2022-07-27T02:43:25.345Z,101265.94
2022-07-27T02:43:47.063Z,101267.88
2022-07-27T02:44:09.681Z,101250.53
2022-07-27T02:44:31.786Z,101267.88
2022-07-27T02:44:56.632Z,101268.88
2022-07-27T02:45:18.402Z,101276.75
2022-07-27T02:45:40.286Z,101271.44
2022-07-27T02:46:02.950Z,101266.16
2022-07-27T02:46:24.767Z,101266.25
2022-07-27T02:46:46.508Z,101268.09
2022-07-27T02:47:08.267Z,101267.88
2022-07-27T02:47:29.958Z,101266.16
2022-07-27T02:47:52.573Z,101269.69
2022-07-27T02:48:14.718Z,101269.81
2022-07-27T02:48:36.476Z,101276.19
2022-07-27T02:48:58.337Z,101271.75
2022-07-27T02:49:21.109Z,101266.34
2022-07-27T02:49:42.850Z,101270.88
2022-07-27T02:50:05.415Z,101272.69
2022-07-27T02:50:27.404Z,101270.00
2022-07-27T02:50:50.082Z,101270.78
2022-07-27T02:51:11.825Z,101272.41
2022-07-27T02:51:33.476Z,101273.28
2022-07-27T02:51:55.236Z,101264.59
2022-07-27T02:52:17.886Z,101278.66
2022-07-27T02:52:41.036Z,101262.13
2022-07-27T02:53:02.752Z,101276.97
2022-07-27T02:53:24.443Z,101274.25
2022-07-27T02:53:47.114Z,101275.97
2022-07-27T02:54:08.826Z,101278.88
2022-07-27T02:54:32.421Z,101264.91
2022-07-27T02:54:54.569Z,101277.13
2022-07-27T02:55:17.257Z,101281.78
2022-07-27T02:55:38.961Z,101278.41
2022-07-27T02:56:00.701Z,101280.91
2022-07-27T02:56:26.781Z,101271.25
2022-07-27T02:56:50.133Z,101281.66
2022-07-27T02:57:11.810Z,101284.50
2022-07-27T02:57:35.920Z,101283.63
2022-07-27T02:57:57.687Z,101282.94
2022-07-27T02:58:21.150Z,101279.09
2022-07-27T02:58:42.885Z,101284.50
2022-07-27T02:59:04.536Z,101284.50
2022-07-27T02:59:26.772Z,101282.75
2022-07-27T02:59:48.411Z,101283.50
2022-07-27T03:00:15.228Z,101279.09
2022-07-27T03:00:36.949Z,101283.19
2022-07-27T03:00:58.990Z,101286.69
2022-07-27T03:01:20.994Z,101273.41
2022-07-27T03:01:43.752Z,101286.75
2022-07-27T03:02:05.431Z,101286.09
2022-07-27T03:02:27.211Z,101285.31
2022-07-27T03:02:49.255Z,101272.91
2022-07-27T03:03:12.457Z,101285.63
2022-07-27T03:03:36.209Z,101280.34
2022-07-27T03:03:58.977Z,101282.25
2022-07-27T03:04:20.865Z,101278.03
2022-07-27T03:04:43.738Z,101285.91
2022-07-27T03:05:06.712Z,101276.88
2022-07-27T03:05:28.566Z,101291.22
2022-07-27T03:05:50.272Z,101281.22
2022-07-27T03:06:12.990Z,101283.78
2022-07-27T03:06:34.715Z,101287.38
2022-07-27T03:06:56.483Z,101286.50
2022-07-27T03:07:18.152Z,101284.22
2022-07-27T03:07:42.201Z,101285.06
2022-07-27T03:08:04.337Z,101277.94
2022-07-27T03:08:26.031Z,101281.41
2022-07-27T03:08:47.753Z,101290.34
2022-07-27T03:09:11.236Z,101283.34
2022-07-27T03:09:33.684Z,101284.31
2022-07-27T03:09:55.425Z,101289.59
2022-07-27T03:10:17.162Z,101265.13
2022-07-27T03:10:39.869Z,101288.75
2022-07-27T03:11:01.780Z,101285.06
2022-07-27T03:11:23.493Z,101272.84
2022-07-27T03:11:45.226Z,101291.53
2022-07-27T03:12:08.588Z,101284.47
2022-07-27T03:12:30.377Z,101287.38
2022-07-27T03:12:52.063Z,101279.09
2022-07-27T03:13:13.716Z,101281.13
2022-07-27T03:13:36.408Z,101280.16
2022-07-27T03:13:58.155Z,101285.66
2022-07-27T03:14:19.865Z,101280.25
2022-07-27T03:14:41.550Z,101288.25
2022-07-27T03:15:03.796Z,101273.41
2022-07-27T03:15:26.635Z,101284.59
2022-07-27T03:15:48.297Z,101287.00
2022-07-27T03:16:10.083Z,101286.13
2022-07-27T03:16:31.863Z,101291.53
2022-07-27T03:16:54.780Z,101290.66
2022-07-27T03:17:16.585Z,101291.53
2022-07-27T03:17:38.292Z,101286.13
2022-07-27T03:18:00.099Z,101285.25
2022-07-27T03:18:22.726Z,101293.56
2022-07-27T03:18:44.352Z,101287.19
2022-07-27T03:19:06.246Z,101286.34
2022-07-27T03:19:30.419Z,101280.72
2022-07-27T03:19:53.144Z,101287.28
2022-07-27T03:20:14.858Z,101291.03
2022-07-27T03:20:36.497Z,101285.66
2022-07-27T03:20:58.675Z,101288.47
2022-07-27T03:21:21.307Z,101293.06
2022-07-27T03:21:43.269Z,101273.63
2022-07-27T03:22:04.935Z,101287.78
2022-07-27T03:22:30.591Z,101287.88
2022-07-27T03:22:55.190Z,101290.66
2022-07-27T03:23:18.156Z,101288.63
2022-07-27T03:23:40.380Z,101283.34
2022-07-27T03:24:02.405Z,101288.72
2022-07-27T03:24:25.019Z,101282.66
2022-07-27T03:24:46.772Z,101282.78
2022-07-27T03:25:09.813Z,101275.44
2022-07-27T03:25:32.480Z,101287.03
2022-07-27T03:25:54.112Z,101286.72
2022-07-27T03:26:16.667Z,101284.97
2022-07-27T03:26:38.317Z,101285.94
2022-07-27T03:26:59.959Z,101284.97
2022-07-27T03:27:22.613Z,101286.59
2022-07-27T03:27:44.291Z,101285.66
2022-07-27T03:28:05.970Z,101282.94
2022-07-27T03:28:28.616Z,101279.28
2022-07-27T03:28:50.283Z,101282.00
2022-07-27T03:29:13.617Z,101288.63
2022-07-27T03:29:35.704Z,101278.72
2022-07-27T03:29:58.654Z,101280.84
2022-07-27T03:30:20.508Z,101282.38
2022-07-27T03:30:42.240Z,101281.50
2022-07-27T03:31:05.031Z,101286.03
2022-07-27T03:31:26.880Z,101284.91
2022-07-27T03:31:48.590Z,101276.03
2022-07-27T03:32:10.252Z,101292.28
2022-07-27T03:32:32.942Z,101285.06
2022-07-27T03:32:54.679Z,101284.41
2022-07-27T03:33:16.821Z,101281.72
2022-07-27T03:33:38.499Z,101288.94
2022-07-27T03:34:02.208Z,101281.72
2022-07-27T03:34:24.033Z,101282.78
2022-07-27T03:34:45.681Z,101280.09
2022-07-27T03:35:08.025Z,101290.09
2022-07-27T03:35:30.700Z,101279.31
2022-07-27T03:35:52.409Z,101282.09
2022-07-27T03:36:15.009Z,101288.34
2022-07-27T03:36:36.828Z,101287.47
2022-07-27T03:36:58.495Z,101285.66
2022-07-27T03:37:20.254Z,101280.34
2022-07-27T03:37:43.316Z,101281.44
2022-07-27T03:38:06.311Z,101286.81
2022-07-27T03:38:28.027Z,101265.03
2022-07-27T03:38:49.965Z,101281.72
2022-07-27T03:39:13.526Z,101283.53
2022-07-27T03:39:35.380Z,101286.31
2022-07-27T03:39:57.052Z,101287.28
2022-07-27T03:40:18.816Z,101281.13
2022-07-27T03:40:41.610Z,101279.19
2022-07-27T03:41:03.592Z,101284.50
2022-07-27T03:41:25.256Z,101280.25
2022-07-27T03:41:46.883Z,101289.16
2022-07-27T03:42:10.527Z,101285.66
2022-07-27T03:42:32.230Z,101277.66
2022-07-27T03:42:53.936Z,101283.91
2022-07-27T03:43:16.571Z,101283.91
2022-07-27T03:43:38.233Z,101283.91
2022-07-27T03:44:00.019Z,101288.56
2022-07-27T03:44:21.699Z,101284.13
2022-07-27T03:44:44.489Z,101288.56
2022-07-27T03:45:07.839Z,101286.81
2022-07-27T03:45:29.585Z,101287.56
2022-07-27T03:45:52.256Z,101284.22
2022-07-27T03:46:14.104Z,101294.72
2022-07-27T03:46:35.806Z,101284.72
2022-07-27T03:46:57.481Z,101288.34
2022-07-27T03:47:20.097Z,101287.50
2022-07-27T03:47:41.759Z,101254.59
2022-07-27T03:48:03.609Z,101279.69
2022-07-27T03:48:27.130Z,101286.81
2022-07-27T03:48:49.895Z,101287.78
2022-07-27T03:49:14.535Z,101288.84
2022-07-27T03:49:37.267Z,101289.03
2022-07-27T03:49:59.872Z,101284.59
2022-07-27T03:50:21.920Z,101288.16
2022-07-27T03:50:44.577Z,101281.50
2022-07-27T03:51:06.491Z,101287.00
2022-07-27T03:51:29.092Z,101280.84
2022-07-27T03:51:51.031Z,101282.75
2022-07-27T03:52:17.530Z,101281.81
2022-07-27T03:52:40.549Z,101284.50
2022-07-27T03:53:09.168Z,101287.28
2022-07-27T03:53:30.788Z,101287.53
2022-07-27T03:53:52.509Z,101277.03
2022-07-27T03:54:15.617Z,101292.78
2022-07-27T03:54:37.225Z,101265.50
2022-07-27T03:54:58.954Z,101282.88
2022-07-27T03:55:22.055Z,101296.25
2022-07-27T03:55:44.200Z,101288.16
2022-07-27T03:56:05.931Z,101289.88
2022-07-27T03:56:27.621Z,101272.22
2022-07-27T03:56:50.251Z,101288.16
2022-07-27T03:57:11.965Z,101284.69
2022-07-27T03:57:33.700Z,101284.75
2022-07-27T03:57:55.485Z,101295.63
2022-07-27T03:58:18.601Z,101275.41
2022-07-27T03:58:40.332Z,101285.72
2022-07-27T03:59:02.094Z,101284.75
2022-07-27T03:59:24.718Z,101291.88
2022-07-27T03:59:46.483Z,101282.25
2022-07-27T04:00:12.209Z,101295.63
2022-07-27T04:00:33.839Z,101285.72
2022-07-27T04:00:56.535Z,101289.09
2022-07-27T04:01:18.326Z,101281.19
2022-07-27T04:01:40.106Z,101287.53
2022-07-27T04:02:01.868Z,101287.53
2022-07-27T04:02:24.662Z,101291.09
2022-07-27T04:02:46.640Z,101295.63
2022-07-27T04:03:08.332Z,101295.63
2022-07-27T04:03:30.074Z,101290.44
2022-07-27T04:03:52.736Z,101297.44
2022-07-27T04:04:14.479Z,101298.31
2022-07-27T04:04:36.205Z,101296.50
2022-07-27T04:04:57.892Z,101296.41
2022-07-27T04:05:21.744Z,101298.94
2022-07-27T04:05:43.458Z,101295.63
2022-07-27T04:06:05.168Z,101297.97
2022-07-27T04:06:26.978Z,101297.09
2022-07-27T04:06:49.614Z,101289.03
2022-07-27T04:07:11.323Z,101291.72
2022-07-27T04:07:33.028Z,101293.38
2022-07-27T04:07:55.630Z,101287.81
2022-07-27T04:08:21.129Z,101302.59
2022-07-27T04:08:42.782Z,101294.59
2022-07-27T04:09:07.980Z,101294.50
2022-07-27T04:09:31.339Z,101296.25
2022-07-27T04:09:53.667Z,101293.66
2022-07-27T04:10:15.360Z,101295.38
2022-07-27T04:10:37.573Z,101292.66
2022-07-27T04:11:00.386Z,101303.47
2022-07-27T04:11:22.064Z,101297.19
2022-07-27T04:11:51.183Z,101306.28
2022-07-27T04:12:13.485Z,101289.28
2022-07-27T04:12:37.618Z,101306.41
2022-07-27T04:13:00.472Z,101299.47
2022-07-27T04:13:22.746Z,101301.88
2022-07-27T04:13:46.565Z,101299.28
2022-07-27T04:14:09.122Z,101301.00
2022-07-27T04:14:33.662Z,101296.84
2022-07-27T04:14:55.354Z,101307.47
2022-07-27T04:15:18.894Z,101310.25
2022-07-27T04:15:40.571Z,101284.81
2022-07-27T04:16:03.202Z,101308.50
2022-07-27T04:16:24.842Z,101297.94
2022-07-27T04:16:47.173Z,101305.06
2022-07-27T04:17:10.013Z,101301.50
2022-07-27T04:17:56.510Z,101298.88
2022-07-27T04:18:13.451Z,101300.53
2022-07-27T04:18:36.121Z,101303.41
2022-07-27T04:18:57.790Z,101307.06
2022-07-27T04:19:19.440Z,101299.38
2022-07-27T04:19:41.121Z,101306.09
2022-07-27T04:20:04.122Z,101304.38